createdAt,value
2016-06-02T17:27:06.025Z,1006.11
2016-06-02T17:27:16.009Z,1006.12
2016-06-02T17:27:26.009Z,1006.08
2016-06-02T17:27:36.012Z,1006.08
2016-06-02T17:27:45.996Z,1006.07
2016-06-02T17:27:56.012Z,1006.14
2016-06-02T17:28:05.981Z,1006.07
2016-06-02T17:28:15.981Z,1006.1
2016-06-02T17:28:25.981Z,1006.1
2016-06-02T17:28:35.984Z,1006.07
2016-06-02T17:28:45.968Z,1006.11
2016-06-02T17:28:55.968Z,1006.09
2016-06-02T17:29:05.968Z,1006.1
2016-06-02T17:29:15.953Z,1006.06
2016-06-02T17:29:25.937Z,1006.05
2016-06-02T17:29:35.956Z,1006.07
2016-06-02T17:29:45.956Z,1006.09
2016-06-02T17:29:55.924Z,1006.11
2016-06-02T17:30:05.924Z,1006.12
2016-06-02T17:30:15.924Z,1006.07
2016-06-02T17:30:25.768Z,1006.14
2016-06-02T17:30:35.926Z,1006.1
2016-06-02T17:30:45.911Z,1006.1
2016-06-02T17:30:55.911Z,1006.09
2016-06-02T17:31:05.895Z,1006.09
2016-06-02T17:31:15.895Z,1006.07
2016-06-02T17:31:25.879Z,1006.09
2016-06-02T17:31:35.882Z,1006.08
2016-06-02T17:31:45.882Z,1006.1
2016-06-02T17:31:55.867Z,1006.08
2016-06-02T17:32:05.867Z,1006.09
2016-06-02T17:32:15.867Z,1006.11
2016-06-02T17:32:25.851Z,1006.09
2016-06-02T17:32:35.854Z,1006.09
2016-06-02T17:32:45.854Z,1006.07
2016-06-02T17:32:55.839Z,1006.1
2016-06-02T17:33:05.839Z,1006.13
2016-06-02T17:33:15.839Z,1006.14
2016-06-02T17:33:25.823Z,1006.03
2016-06-02T17:33:35.685Z,1006.14
2016-06-02T17:33:45.826Z,1006.07
2016-06-02T17:33:55.810Z,1006.06
2016-06-02T17:34:05.810Z,1006.06
2016-06-02T17:34:15.810Z,1006.11
2016-06-02T17:34:25.795Z,1006.11
2016-06-02T17:34:35.797Z,1006.14
2016-06-02T17:34:45.797Z,1006.1
2016-06-02T17:34:55.781Z,1006.07
2016-06-02T17:35:05.781Z,1006.11
2016-06-02T17:35:15.781Z,1006.05
2016-06-02T17:35:25.765Z,1006.08
2016-06-02T17:35:35.768Z,1006.14
2016-06-02T17:35:45.753Z,1006.1
2016-06-02T17:35:55.753Z,1006.1
2016-06-02T17:36:05.597Z,1006.07
2016-06-02T17:36:15.737Z,1006.06
2016-06-02T17:36:25.737Z,1006.05
2016-06-02T17:36:35.739Z,1006.06
2016-06-02T17:36:45.724Z,1006.08
2016-06-02T17:36:55.724Z,1006.08
2016-06-02T17:37:05.724Z,1006.05
2016-06-02T17:37:15.708Z,1006.05
2016-06-02T17:37:25.708Z,1006.06
2016-06-02T17:37:35.570Z,1006.06
2016-06-02T17:37:45.711Z,1006.05
2016-06-02T17:37:55.695Z,1006.07
2016-06-02T17:38:05.695Z,1006.06
2016-06-02T17:38:15.695Z,1006.07
2016-06-02T17:38:25.695Z,1006.06
2016-06-02T17:38:35.683Z,1006.07
2016-06-02T17:38:45.683Z,1006.05
2016-06-02T17:38:55.683Z,1006.12
2016-06-02T17:39:05.667Z,1006.12
2016-06-02T17:39:15.651Z,1006.12
2016-06-02T17:39:25.651Z,1006.11
2016-06-02T17:39:36.029Z,1006.11
2016-06-02T17:39:46.561Z,1006.08
2016-06-02T17:39:55.639Z,1006.14
2016-06-02T17:40:05.701Z,1006.13
2016-06-02T17:40:15.639Z,1006.12
2016-06-02T17:40:26.404Z,1006.13
2016-06-02T17:40:35.797Z,1006.14
2016-06-02T17:40:46.547Z,1006.11
2016-06-02T17:40:56.594Z,1006.1
2016-06-02T17:41:05.641Z,1006.11
2016-06-02T17:41:15.594Z,1006.19
2016-06-02T17:41:25.594Z,1006.19
2016-06-02T17:41:35.581Z,1006.11
2016-06-02T17:41:45.597Z,1006.2
2016-06-02T17:41:55.581Z,1006.13
2016-06-02T17:42:05.566Z,1006.16
2016-06-02T17:42:15.581Z,1006.17
2016-06-02T17:42:25.581Z,1006.16
2016-06-02T17:42:35.569Z,1006.16
2016-06-02T17:42:45.569Z,1006.19
2016-06-02T17:42:55.553Z,1006.19
2016-06-02T17:43:05.537Z,1006.2
2016-06-02T17:43:15.553Z,1006.11
2016-06-02T17:43:25.537Z,1006.15
2016-06-02T17:43:35.539Z,1006.17
2016-06-02T17:43:45.524Z,1006.19
2016-06-02T17:43:55.524Z,1006.11
2016-06-02T17:44:05.524Z,1006.13
2016-06-02T17:44:15.508Z,1006.18
2016-06-02T17:44:25.508Z,1006.2
2016-06-02T17:44:35.511Z,1006.17
2016-06-02T17:44:45.496Z,1006.2
2016-06-02T17:44:57.667Z,1006.17
2016-06-02T17:45:05.480Z,1006.19
2016-06-02T17:45:17.277Z,1006.16
2016-06-02T17:45:25.480Z,1006.16
2016-06-02T17:45:35.483Z,1006.17
2016-06-02T17:45:45.483Z,1006.2
2016-06-02T17:45:55.467Z,1006.17
2016-06-02T17:46:05.467Z,1006.15
2016-06-02T17:46:15.452Z,1006.2
2016-06-02T17:46:25.295Z,1006.17
2016-06-02T17:46:35.454Z,1006.17
2016-06-02T17:46:45.454Z,1006.14
2016-06-02T17:46:55.438Z,1006.18
2016-06-02T17:47:05.438Z,1006.17
2016-06-02T17:47:15.438Z,1006.15
2016-06-02T17:47:25.422Z,1006.16
2016-06-02T17:47:35.425Z,1006.17
2016-06-02T17:47:45.425Z,1006.17
2016-06-02T17:47:55.410Z,1006.16
2016-06-02T17:48:05.410Z,1006.27
2016-06-02T17:48:15.410Z,1006.2
2016-06-02T17:48:25.394Z,1006.2
2016-06-02T17:48:35.396Z,1006.18
2016-06-02T17:48:45.396Z,1006.18
2016-06-02T17:48:55.381Z,1006.26
2016-06-02T17:49:05.381Z,1006.2
2016-06-02T17:49:15.365Z,1006.2
2016-06-02T17:49:25.365Z,1006.21
2016-06-02T17:49:35.369Z,1006.2
2016-06-02T17:49:45.353Z,1006.21
2016-06-02T17:49:55.353Z,1006.22
2016-06-02T17:50:05.369Z,1006.21
2016-06-02T17:50:15.353Z,1006.26
2016-06-02T17:50:25.338Z,1006.24
2016-06-02T17:50:35.340Z,1006.25
2016-06-02T17:50:45.324Z,1006.26
2016-06-02T17:50:55.324Z,1006.25
2016-06-02T17:51:05.324Z,1006.23
2016-06-02T17:51:15.324Z,1006.26
2016-06-02T17:51:25.308Z,1006.22
2016-06-02T17:51:35.310Z,1006.26
2016-06-02T17:51:45.310Z,1006.24
2016-06-02T17:51:55.295Z,1006.23
2016-06-02T17:52:05.295Z,1006.25
2016-06-02T17:52:15.295Z,1006.2
2016-06-02T17:52:25.279Z,1006.21
2016-06-02T17:52:35.283Z,1006.27
2016-06-02T17:52:45.283Z,1006.23
2016-06-02T17:52:55.268Z,1006.23
2016-06-02T17:53:05.268Z,1006.31
2016-06-02T17:53:15.252Z,1006.27
2016-06-02T17:53:25.252Z,1006.24
2016-06-02T17:53:35.254Z,1006.31
2016-06-02T17:53:45.254Z,1006.27
2016-06-02T17:53:55.238Z,1006.28
2016-06-02T17:54:05.238Z,1006.27
2016-06-02T17:54:15.238Z,1006.25
2016-06-02T17:54:25.066Z,1006.26
2016-06-02T17:54:35.616Z,1006.33
2016-06-02T17:54:45.241Z,1006.3
2016-06-02T17:54:55.851Z,1006.32
2016-06-02T17:55:05.210Z,1006.32
2016-06-02T17:55:15.741Z,1006.31
2016-06-02T17:55:25.429Z,1006.33
2016-06-02T17:55:36.150Z,1006.3
2016-06-02T17:55:45.040Z,1006.29
2016-06-02T17:55:55.884Z,1006.31
2016-06-02T17:56:05.181Z,1006.33
2016-06-02T17:56:15.181Z,1006.34
2016-06-02T17:56:25.165Z,1006.32
2016-06-02T17:56:35.168Z,1006.29
2016-06-02T17:56:45.153Z,1006.32
2016-06-02T17:56:55.153Z,1006.29
2016-06-02T17:57:05.153Z,1006.31
2016-06-02T17:57:15.137Z,1006.33
2016-06-02T17:57:25.153Z,1006.36
2016-06-02T17:57:35.140Z,1006.35
2016-06-02T17:57:45.124Z,1006.3
2016-06-02T17:57:55.140Z,1006.33
2016-06-02T17:58:05.140Z,1006.32
2016-06-02T17:58:15.124Z,1006.34
2016-06-02T17:58:25.109Z,1006.31
2016-06-02T17:58:35.111Z,1006.33
2016-06-02T17:58:45.095Z,1006.31
2016-06-02T17:58:55.111Z,1006.28
2016-06-02T17:59:05.111Z,1006.31
2016-06-02T17:59:15.095Z,1006.33
2016-06-02T17:59:25.095Z,1006.35
2016-06-02T17:59:35.082Z,1006.34
2016-06-02T17:59:45.082Z,1006.34
2016-06-02T17:59:55.082Z,1006.34
2016-06-02T18:00:05.067Z,1006.34
2016-06-02T18:00:15.067Z,1006.33
2016-06-02T18:00:25.067Z,1006.33
2016-06-02T18:00:35.070Z,1006.33
2016-06-02T18:00:45.054Z,1006.33
2016-06-02T18:00:55.054Z,1006.3
2016-06-02T18:01:05.039Z,1006.34
2016-06-02T18:01:15.039Z,1006.29
2016-06-02T18:01:25.039Z,1006.34
2016-06-02T18:01:35.026Z,1006.43
2016-06-02T18:01:45.026Z,1006.37
2016-06-02T18:01:55.026Z,1006.4
2016-06-02T18:02:05.010Z,1006.38
2016-06-02T18:02:15.010Z,1006.36
2016-06-02T18:02:25.010Z,1006.33
2016-06-02T18:02:34.997Z,1006.37
2016-06-02T18:02:44.997Z,1006.33
2016-06-02T18:02:54.997Z,1006.37
2016-06-02T18:03:04.981Z,1006.35
2016-06-02T18:03:14.981Z,1006.39
2016-06-02T18:03:24.965Z,1006.36
2016-06-02T18:03:34.984Z,1006.38
2016-06-02T18:03:44.968Z,1006.35
2016-06-02T18:03:54.953Z,1006.35
2016-06-02T18:04:04.953Z,1006.37
2016-06-02T18:04:14.953Z,1006.41
2016-06-02T18:04:24.937Z,1006.41
2016-06-02T18:04:34.939Z,1006.34
2016-06-02T18:04:44.939Z,1006.36
2016-06-02T18:04:54.939Z,1006.33
2016-06-02T18:05:04.924Z,1006.37
2016-06-02T18:05:14.924Z,1006.4
2016-06-02T18:05:24.924Z,1006.34
2016-06-02T18:05:34.942Z,1006.34
2016-06-02T18:05:44.911Z,1006.38
2016-06-02T18:05:54.911Z,1006.35
2016-06-02T18:06:04.911Z,1006.37
2016-06-02T18:06:14.895Z,1006.31
2016-06-02T18:06:24.895Z,1006.32
2016-06-02T18:06:34.914Z,1006.34
2016-06-02T18:06:44.898Z,1006.35
2016-06-02T18:06:54.883Z,1006.36
2016-06-02T18:07:04.883Z,1006.34
2016-06-02T18:07:14.867Z,1006.42
2016-06-02T18:07:24.711Z,1006.36
2016-06-02T18:07:34.870Z,1006.3
2016-06-02T18:07:44.870Z,1006.35
2016-06-02T18:07:54.854Z,1006.34
2016-06-02T18:08:04.839Z,1006.32
2016-06-02T18:08:14.839Z,1006.35
2016-06-02T18:08:24.854Z,1006.3
2016-06-02T18:08:34.842Z,1006.29
2016-06-02T18:08:44.826Z,1006.28
2016-06-02T18:08:54.826Z,1006.33
2016-06-02T18:09:04.811Z,1006.31
2016-06-02T18:09:14.811Z,1006.32
2016-06-02T18:09:24.811Z,1006.36
2016-06-02T18:09:34.813Z,1006.3
2016-06-02T18:09:45.094Z,1006.37
2016-06-02T18:09:54.813Z,1006.33
2016-06-02T18:10:05.031Z,1006.31
2016-06-02T18:10:15.016Z,1006.31
2016-06-02T18:10:25.078Z,1006.32
2016-06-02T18:10:35.300Z,1006.4
2016-06-02T18:10:44.644Z,1006.36
2016-06-02T18:10:55.612Z,1006.33
2016-06-02T18:11:04.769Z,1006.35
2016-06-02T18:11:14.753Z,1006.32
2016-06-02T18:11:24.769Z,1006.34
2016-06-02T18:11:34.755Z,1006.35
2016-06-02T18:11:44.739Z,1006.34
2016-06-02T18:11:54.739Z,1006.35
2016-06-02T18:12:04.724Z,1006.32
2016-06-02T18:12:14.739Z,1006.31
2016-06-02T18:12:24.724Z,1006.32
2016-06-02T18:12:34.727Z,1006.29
2016-06-02T18:12:44.742Z,1006.34
2016-06-02T18:12:54.711Z,1006.34
2016-06-02T18:13:04.696Z,1006.35
2016-06-02T18:13:14.696Z,1006.33
2016-06-02T18:13:24.711Z,1006.34
2016-06-02T18:13:34.683Z,1006.34
2016-06-02T18:13:44.683Z,1006.33
2016-06-02T18:13:54.683Z,1006.37
2016-06-02T18:14:04.683Z,1006.39
2016-06-02T18:14:14.667Z,1006.42
2016-06-02T18:14:24.667Z,1006.38
2016-06-02T18:14:34.669Z,1006.37
2016-06-02T18:14:44.669Z,1006.38
2016-06-02T18:14:54.654Z,1006.41
2016-06-02T18:15:04.638Z,1006.39
2016-06-02T18:15:14.638Z,1006.4
2016-06-02T18:15:24.638Z,1006.39
2016-06-02T18:15:34.642Z,1006.38
2016-06-02T18:15:44.626Z,1006.4
2016-06-02T18:15:54.626Z,1006.44
2016-06-02T18:16:04.626Z,1006.44
2016-06-02T18:16:14.626Z,1006.39
2016-06-02T18:16:24.611Z,1006.41
2016-06-02T18:16:34.613Z,1006.42
2016-06-02T18:16:44.597Z,1006.42
2016-06-02T18:16:54.597Z,1006.39
2016-06-02T18:17:04.597Z,1006.42
2016-06-02T18:17:14.582Z,1006.45
2016-06-02T18:17:24.582Z,1006.42
2016-06-02T18:17:34.584Z,1006.39
2016-06-02T18:17:44.568Z,1006.41
2016-06-02T18:17:54.584Z,1006.43
2016-06-02T18:18:04.568Z,1006.45
2016-06-02T18:18:14.568Z,1006.41
2016-06-02T18:18:24.552Z,1006.43
2016-06-02T18:18:34.555Z,1006.44
2016-06-02T18:18:44.555Z,1006.42
2016-06-02T18:18:54.540Z,1006.4
2016-06-02T18:19:04.540Z,1006.39
2016-06-02T18:19:14.524Z,1006.44
2016-06-02T18:19:24.524Z,1006.45
2016-06-02T18:19:34.527Z,1006.4
2016-06-02T18:19:44.527Z,1006.38
2016-06-02T18:19:54.511Z,1006.46
2016-06-02T18:20:04.511Z,1006.43
2016-06-02T18:20:14.511Z,1006.4
2016-06-02T18:20:24.340Z,1006.44
2016-06-02T18:20:34.499Z,1006.46
2016-06-02T18:20:44.499Z,1006.43
2016-06-02T18:20:54.499Z,1006.42
2016-06-02T18:21:04.483Z,1006.43
2016-06-02T18:21:14.499Z,1006.43
2016-06-02T18:21:24.468Z,1006.41
2016-06-02T18:21:34.470Z,1006.36
2016-06-02T18:21:44.470Z,1006.4
2016-06-02T18:21:54.454Z,1006.48
2016-06-02T18:22:04.454Z,1006.44
2016-06-02T18:22:14.470Z,1006.45
2016-06-02T18:22:24.438Z,1006.45
2016-06-02T18:22:34.457Z,1006.44
2016-06-02T18:22:44.441Z,1006.46
2016-06-02T18:22:54.426Z,1006.48
2016-06-02T18:23:04.441Z,1006.44
2016-06-02T18:23:14.426Z,1006.45
2016-06-02T18:23:24.426Z,1006.41
2016-06-02T18:23:34.413Z,1006.41
2016-06-02T18:23:44.413Z,1006.43
2016-06-02T18:23:54.397Z,1006.39
2016-06-02T18:24:04.397Z,1006.44
2016-06-02T18:24:14.382Z,1006.43
2016-06-02T18:24:24.382Z,1006.39
2016-06-02T18:24:34.259Z,1006.42
2016-06-02T18:24:45.228Z,1006.39
2016-06-02T18:24:55.103Z,1006.42
2016-06-02T18:25:04.649Z,1006.4
2016-06-02T18:25:14.384Z,1006.42
2016-06-02T18:25:24.212Z,1006.43
2016-06-02T18:25:34.560Z,1006.43
2016-06-02T18:25:44.810Z,1006.38
2016-06-02T18:25:54.560Z,1006.42
2016-06-02T18:26:04.341Z,1006.41
2016-06-02T18:26:14.341Z,1006.39
2016-06-02T18:26:24.325Z,1006.43
2016-06-02T18:26:34.326Z,1006.38
2016-06-02T18:26:44.326Z,1006.36
2016-06-02T18:26:54.311Z,1006.37
2016-06-02T18:27:04.326Z,1006.39
2016-06-02T18:27:14.311Z,1006.4
2016-06-02T18:27:24.295Z,1006.38
2016-06-02T18:27:34.298Z,1006.36
2016-06-02T18:27:44.298Z,1006.38
2016-06-02T18:27:54.298Z,1006.39
2016-06-02T18:28:04.298Z,1006.42
2016-06-02T18:28:14.282Z,1006.42
2016-06-02T18:28:24.267Z,1006.4
2016-06-02T18:28:34.285Z,1006.41
2016-06-02T18:28:44.270Z,1006.42
2016-06-02T18:28:54.254Z,1006.37
2016-06-02T18:29:04.254Z,1006.39
2016-06-02T18:29:14.254Z,1006.42
2016-06-02T18:29:24.254Z,1006.39
2016-06-02T18:29:34.257Z,1006.4
2016-06-02T18:29:44.242Z,1006.35
2016-06-02T18:29:54.226Z,1006.38
2016-06-02T18:30:04.242Z,1006.37
2016-06-02T18:30:14.226Z,1006.4
2016-06-02T18:30:24.226Z,1006.37
2016-06-02T18:30:34.212Z,1006.44
2016-06-02T18:30:44.212Z,1006.35
2016-06-02T18:30:54.212Z,1006.39
2016-06-02T18:31:04.212Z,1006.37
2016-06-02T18:31:14.056Z,1006.35
2016-06-02T18:31:24.197Z,1006.34
2016-06-02T18:31:34.185Z,1006.38
2016-06-02T18:31:44.185Z,1006.36
2016-06-02T18:31:54.185Z,1006.38
2016-06-02T18:32:04.185Z,1006.34
2016-06-02T18:32:14.169Z,1006.37
2016-06-02T18:32:24.154Z,1006.34
2016-06-02T18:32:34.156Z,1006.34
2016-06-02T18:32:44.171Z,1006.35
2016-06-02T18:32:54.156Z,1006.36
2016-06-02T18:33:04.156Z,1006.36
2016-06-02T18:33:14.140Z,1006.37
2016-06-02T18:33:24.140Z,1006.37
2016-06-02T18:33:34.127Z,1006.34
2016-06-02T18:33:44.127Z,1006.34
2016-06-02T18:33:54.127Z,1006.37
2016-06-02T18:34:03.970Z,1006.4
2016-06-02T18:34:14.111Z,1006.31
2016-06-02T18:34:24.111Z,1006.35
2016-06-02T18:34:34.098Z,1006.43
2016-06-02T18:34:44.098Z,1006.31
2016-06-02T18:34:54.098Z,1006.33
2016-06-02T18:35:04.083Z,1006.33
2016-06-02T18:35:14.083Z,1006.3
2016-06-02T18:35:24.083Z,1006.32
2016-06-02T18:35:34.070Z,1006.34
2016-06-02T18:35:44.070Z,1006.36
2016-06-02T18:35:54.054Z,1006.37
2016-06-02T18:36:04.054Z,1006.32
2016-06-02T18:36:13.914Z,1006.3
2016-06-02T18:36:24.054Z,1006.34
2016-06-02T18:36:34.042Z,1006.27
2016-06-02T18:36:44.042Z,1006.3
2016-06-02T18:36:54.042Z,1006.28
2016-06-02T18:37:04.042Z,1006.36
2016-06-02T18:37:14.042Z,1006.31
2016-06-02T18:37:24.026Z,1006.29
2016-06-02T18:37:34.013Z,1006.28
2016-06-02T18:37:44.013Z,1006.29
2016-06-02T18:37:54.013Z,1006.3
2016-06-02T18:38:04.013Z,1006.32
2016-06-02T18:38:13.997Z,1006.3
2016-06-02T18:38:23.997Z,1006.31
2016-06-02T18:38:34.001Z,1006.27
2016-06-02T18:38:44.001Z,1006.34
2016-06-02T18:38:53.985Z,1006.3
2016-06-02T18:39:03.985Z,1006.31
2016-06-02T18:39:13.985Z,1006.32
2016-06-02T18:39:23.970Z,1006.3
2016-06-02T18:39:33.689Z,1006.25
2016-06-02T18:39:43.971Z,1006.31
2016-06-02T18:39:54.127Z,1006.32
2016-06-02T18:40:04.033Z,1006.29
2016-06-02T18:40:14.346Z,1006.26
2016-06-02T18:40:24.377Z,1006.32
2016-06-02T18:40:34.880Z,1006.35
2016-06-02T18:40:43.896Z,1006.33
2016-06-02T18:40:54.599Z,1006.34
2016-06-02T18:41:03.927Z,1006.33
2016-06-02T18:41:13.911Z,1006.32
2016-06-02T18:41:23.911Z,1006.31
2016-06-02T18:41:33.602Z,1006.3
2016-06-02T18:41:43.914Z,1006.31
2016-06-02T18:41:53.914Z,1006.3
2016-06-02T18:42:03.883Z,1006.31
2016-06-02T18:42:13.899Z,1006.31
2016-06-02T18:42:23.883Z,1006.34
2016-06-02T18:42:33.886Z,1006.34
2016-06-02T18:42:43.886Z,1006.31
2016-06-02T18:42:53.870Z,1006.31
2016-06-02T18:43:03.870Z,1006.31
2016-06-02T18:43:13.855Z,1006.33
2016-06-02T18:43:23.855Z,1006.3
2016-06-02T18:43:33.858Z,1006.32
2016-06-02T18:43:43.858Z,1006.35
2016-06-02T18:43:53.842Z,1006.33
2016-06-02T18:44:03.842Z,1006.29
2016-06-02T18:44:13.842Z,1006.29
2016-06-02T18:44:23.826Z,1006.3
2016-06-02T18:44:33.829Z,1006.29
2016-06-02T18:44:43.829Z,1006.31
2016-06-02T18:44:53.814Z,1006.29
2016-06-02T18:45:03.814Z,1006.37
2016-06-02T18:45:13.814Z,1006.29
2016-06-02T18:45:23.798Z,1006.34
2016-06-02T18:45:33.800Z,1006.31
2016-06-02T18:45:43.800Z,1006.31
2016-06-02T18:45:53.800Z,1006.3
2016-06-02T18:46:03.785Z,1006.28
2016-06-02T18:46:13.785Z,1006.28
2016-06-02T18:46:23.769Z,1006.29
2016-06-02T18:46:33.772Z,1006.28
2016-06-02T18:46:43.772Z,1006.29
2016-06-02T18:46:53.756Z,1006.29
2016-06-02T18:47:03.756Z,1006.3
2016-06-02T18:47:13.756Z,1006.3
2016-06-02T18:47:23.741Z,1006.27
2016-06-02T18:47:33.744Z,1006.27
2016-06-02T18:47:43.744Z,1006.25
2016-06-02T18:47:53.728Z,1006.26
2016-06-02T18:48:03.728Z,1006.28
2016-06-02T18:48:13.712Z,1006.33
2016-06-02T18:48:23.712Z,1006.29
2016-06-02T18:48:33.714Z,1006.29
2016-06-02T18:48:43.714Z,1006.29
2016-06-02T18:48:53.730Z,1006.31
2016-06-02T18:49:03.699Z,1006.25
2016-06-02T18:49:13.699Z,1006.31
2016-06-02T18:49:23.699Z,1006.28
2016-06-02T18:49:33.686Z,1006.26
2016-06-02T18:49:43.686Z,1006.32
2016-06-02T18:49:53.686Z,1006.31
2016-06-02T18:50:03.671Z,1006.27
2016-06-02T18:50:13.671Z,1006.27
2016-06-02T18:50:23.655Z,1006.33
2016-06-02T18:50:33.674Z,1006.31
2016-06-02T18:50:43.658Z,1006.28
2016-06-02T18:50:53.658Z,1006.31
2016-06-02T18:51:03.642Z,1006.32
2016-06-02T18:51:13.642Z,1006.31
2016-06-02T18:51:23.642Z,1006.28
2016-06-02T18:51:33.629Z,1006.33
2016-06-02T18:51:43.629Z,1006.3
2016-06-02T18:51:53.629Z,1006.3
2016-06-02T18:52:03.613Z,1006.24
2016-06-02T18:52:13.613Z,1006.29
2016-06-02T18:52:23.613Z,1006.29
2016-06-02T18:52:33.599Z,1006.29
2016-06-02T18:52:43.599Z,1006.27
2016-06-02T18:52:53.584Z,1006.26
2016-06-02T18:53:03.584Z,1006.26
2016-06-02T18:53:13.584Z,1006.27
2016-06-02T18:53:23.584Z,1006.28
2016-06-02T18:53:33.572Z,1006.28
2016-06-02T18:53:43.572Z,1006.28
2016-06-02T18:53:53.572Z,1006.3
2016-06-02T18:54:03.557Z,1006.31
2016-06-02T18:54:13.557Z,1006.31
2016-06-02T18:54:23.557Z,1006.33
2016-06-02T18:54:33.543Z,1006.29
2016-06-02T18:54:44.559Z,1006.32
2016-06-02T18:54:53.730Z,1006.36
2016-06-02T18:55:04.043Z,1006.33
2016-06-02T18:55:14.121Z,1006.37
2016-06-02T18:55:24.215Z,1006.37
2016-06-02T18:55:33.749Z,1006.35
2016-06-02T18:55:43.233Z,1006.35
2016-06-02T18:55:54.249Z,1006.3
2016-06-02T18:56:03.374Z,1006.36
2016-06-02T18:56:13.499Z,1006.37
2016-06-02T18:56:23.483Z,1006.33
2016-06-02T18:56:33.518Z,1006.32
2016-06-02T18:56:43.486Z,1006.37
2016-06-02T18:56:53.486Z,1006.35
2016-06-02T18:57:03.486Z,1006.32
2016-06-02T18:57:13.471Z,1006.36
2016-06-02T18:57:23.471Z,1006.34
2016-06-02T18:57:33.473Z,1006.34
2016-06-02T18:57:43.457Z,1006.33
2016-06-02T18:57:53.457Z,1006.38
2016-06-02T18:58:03.442Z,1006.32
2016-06-02T18:58:13.442Z,1006.35
2016-06-02T18:58:23.442Z,1006.34
2016-06-02T18:58:33.429Z,1006.31
2016-06-02T18:58:43.429Z,1006.34
2016-06-02T18:58:53.429Z,1006.31
2016-06-02T18:59:03.429Z,1006.33
2016-06-02T18:59:13.413Z,1006.37
2016-06-02T18:59:23.413Z,1006.37
2016-06-02T18:59:33.401Z,1006.3
2016-06-02T18:59:43.401Z,1006.34
2016-06-02T18:59:53.401Z,1006.28
2016-06-02T19:00:03.401Z,1006.29
2016-06-02T19:00:13.385Z,1006.37
2016-06-02T19:00:23.385Z,1006.33
2016-06-02T19:00:33.372Z,1006.32
2016-06-02T19:00:43.372Z,1006.35
2016-06-02T19:00:53.372Z,1006.31
2016-06-02T19:01:03.357Z,1006.34
2016-06-02T19:01:13.357Z,1006.33
2016-06-02T19:01:23.357Z,1006.31
2016-06-02T19:01:33.359Z,1006.31
2016-06-02T19:01:43.343Z,1006.31
2016-06-02T19:01:53.343Z,1006.3
2016-06-02T19:02:03.328Z,1006.28
2016-06-02T19:02:13.328Z,1006.27
2016-06-02T19:02:23.328Z,1006.28
2016-06-02T19:02:33.331Z,1006.36
2016-06-02T19:02:43.331Z,1006.31
2016-06-02T19:02:53.315Z,1006.28
2016-06-02T19:03:03.299Z,1006.28
2016-06-02T19:03:13.299Z,1006.27
2016-06-02T19:03:23.299Z,1006.27
2016-06-02T19:03:33.286Z,1006.26
2016-06-02T19:03:43.129Z,1006.28
2016-06-02T19:03:53.286Z,1006.24
2016-06-02T19:04:03.286Z,1006.23
2016-06-02T19:04:13.270Z,1006.24
2016-06-02T19:04:23.270Z,1006.22
2016-06-02T19:04:33.289Z,1006.26
2016-06-02T19:04:43.257Z,1006.25
2016-06-02T19:04:53.257Z,1006.22
2016-06-02T19:05:03.257Z,1006.24
2016-06-02T19:05:13.242Z,1006.23
2016-06-02T19:05:23.242Z,1006.28
2016-06-02T19:05:33.245Z,1006.23
2016-06-02T19:05:43.245Z,1006.26
2016-06-02T19:05:53.229Z,1006.25
2016-06-02T19:06:03.229Z,1006.24
2016-06-02T19:06:13.214Z,1006.24
2016-06-02T19:06:23.214Z,1006.25
2016-06-02T19:06:33.231Z,1006.23
2016-06-02T19:06:43.262Z,1006.28
2016-06-02T19:06:53.200Z,1006.27
2016-06-02T19:07:03.200Z,1006.21
2016-06-02T19:07:13.200Z,1006.26
2016-06-02T19:07:23.184Z,1006.26
2016-06-02T19:07:33.188Z,1006.24
2016-06-02T19:07:43.173Z,1006.21
2016-06-02T19:07:53.173Z,1006.25
2016-06-02T19:08:03.173Z,1006.28
2016-06-02T19:08:13.157Z,1006.25
2016-06-02T19:08:23.157Z,1006.25
2016-06-02T19:08:33.159Z,1006.28
2016-06-02T19:08:43.143Z,1006.27
2016-06-02T19:08:53.159Z,1006.24
2016-06-02T19:09:03.143Z,1006.28
2016-06-02T19:09:13.143Z,1006.27
2016-06-02T19:09:23.143Z,1006.26
2016-06-02T19:09:33.131Z,1006.25
2016-06-02T19:09:43.506Z,1006.29
2016-06-02T19:09:53.131Z,1006.28
2016-06-02T19:10:04.225Z,1006.33
2016-06-02T19:10:13.537Z,1006.28
2016-06-02T19:10:23.615Z,1006.28
2016-06-02T19:10:33.242Z,1006.28
2016-06-02T19:10:42.977Z,1006.27
2016-06-02T19:10:53.383Z,1006.31
2016-06-02T19:11:02.961Z,1006.27
2016-06-02T19:11:13.086Z,1006.32
2016-06-02T19:11:23.070Z,1006.32
2016-06-02T19:11:33.073Z,1006.26
2016-06-02T19:11:43.089Z,1006.3
2016-06-02T19:11:53.058Z,1006.29
2016-06-02T19:12:03.058Z,1006.32
2016-06-02T19:12:13.058Z,1006.3
2016-06-02T19:12:23.058Z,1006.27
2016-06-02T19:12:33.045Z,1006.3
2016-06-02T19:12:43.045Z,1006.27
2016-06-02T19:12:53.045Z,1006.31
2016-06-02T19:13:03.029Z,1006.33
2016-06-02T19:13:13.029Z,1006.28
2016-06-02T19:13:23.029Z,1006.31
2016-06-02T19:13:33.029Z,1006.34
2016-06-02T19:13:43.017Z,1006.31
2016-06-02T19:13:53.017Z,1006.4
2016-06-02T19:14:03.001Z,1006.31
2016-06-02T19:14:13.001Z,1006.34
2016-06-02T19:14:23.001Z,1006.3
2016-06-02T19:14:32.986Z,1006.36
2016-06-02T19:14:42.988Z,1006.3
2016-06-02T19:14:52.972Z,1006.33
2016-06-02T19:15:02.972Z,1006.36
2016-06-02T19:15:12.972Z,1006.32
2016-06-02T19:15:22.972Z,1006.33
2016-06-02T19:15:32.972Z,1006.36
2016-06-02T19:15:42.959Z,1006.33
2016-06-02T19:15:52.959Z,1006.35
2016-06-02T19:16:02.944Z,1006.31
2016-06-02T19:16:12.944Z,1006.3
2016-06-02T19:16:22.959Z,1006.33
2016-06-02T19:16:32.944Z,1006.31
2016-06-02T19:16:42.947Z,1006.37
2016-06-02T19:16:52.962Z,1006.34
2016-06-02T19:17:02.931Z,1006.3
2016-06-02T19:17:12.915Z,1006.37
2016-06-02T19:17:22.915Z,1006.34
2016-06-02T19:17:32.900Z,1006.36
2016-06-02T19:17:42.917Z,1006.36
2016-06-02T19:17:52.902Z,1006.32
2016-06-02T19:18:02.917Z,1006.37
2016-06-02T19:18:12.902Z,1006.36
2016-06-02T19:18:22.871Z,1006.36
2016-06-02T19:18:32.871Z,1006.34
2016-06-02T19:18:42.889Z,1006.31
2016-06-02T19:18:52.874Z,1006.34
2016-06-02T19:19:02.874Z,1006.36
2016-06-02T19:19:12.889Z,1006.39
2016-06-02T19:19:22.858Z,1006.34
2016-06-02T19:19:32.842Z,1006.29
2016-06-02T19:19:42.845Z,1006.35
2016-06-02T19:19:52.845Z,1006.34
2016-06-02T19:20:02.845Z,1006.33
2016-06-02T19:20:12.845Z,1006.37
2016-06-02T19:20:22.830Z,1006.4
2016-06-02T19:20:32.814Z,1006.4
2016-06-02T19:20:42.817Z,1006.37
2016-06-02T19:20:52.817Z,1006.34
2016-06-02T19:21:02.801Z,1006.42
2016-06-02T19:21:12.801Z,1006.37
2016-06-02T19:21:22.801Z,1006.41
2016-06-02T19:21:32.786Z,1006.36
2016-06-02T19:21:42.788Z,1006.38
2016-06-02T19:21:52.788Z,1006.36
2016-06-02T19:22:02.788Z,1006.4
2016-06-02T19:22:12.772Z,1006.37
2016-06-02T19:22:22.772Z,1006.41
2016-06-02T19:22:32.772Z,1006.42
2016-06-02T19:22:42.760Z,1006.41
2016-06-02T19:22:52.760Z,1006.4
2016-06-02T19:23:02.760Z,1006.37
2016-06-02T19:23:12.744Z,1006.4
2016-06-02T19:23:22.744Z,1006.37
2016-06-02T19:23:32.760Z,1006.41
2016-06-02T19:23:42.730Z,1006.38
2016-06-02T19:23:52.730Z,1006.43
2016-06-02T19:24:02.730Z,1006.42
2016-06-02T19:24:12.574Z,1006.43
2016-06-02T19:24:22.715Z,1006.44
2016-06-02T19:24:32.715Z,1006.41
2016-06-02T19:24:42.749Z,1006.38
2016-06-02T19:24:52.561Z,1006.42
2016-06-02T19:25:03.733Z,1006.39
2016-06-02T19:25:12.702Z,1006.39
2016-06-02T19:25:24.280Z,1006.4
2016-06-02T19:25:32.811Z,1006.4
2016-06-02T19:25:42.689Z,1006.41
2016-06-02T19:25:52.689Z,1006.41
2016-06-02T19:26:03.346Z,1006.36
2016-06-02T19:26:12.674Z,1006.39
2016-06-02T19:26:22.658Z,1006.4
2016-06-02T19:26:32.658Z,1006.39
2016-06-02T19:26:42.660Z,1006.4
2016-06-02T19:26:52.645Z,1006.43
2016-06-02T19:27:02.645Z,1006.37
2016-06-02T19:27:12.629Z,1006.42
2016-06-02T19:27:22.645Z,1006.43
2016-06-02T19:27:32.645Z,1006.41
2016-06-02T19:27:42.632Z,1006.46
2016-06-02T19:27:52.616Z,1006.46
2016-06-02T19:28:02.616Z,1006.42
2016-06-02T19:28:12.601Z,1006.48
2016-06-02T19:28:22.601Z,1006.45